createdAt,value
2022-10-12T00:02:17.366Z,40.20
2022-10-12T00:04:43.957Z,31.83
2022-10-12T00:07:10.536Z,42.35
2022-10-12T00:09:37.176Z,31.38
2022-10-12T00:12:03.929Z,28.75
2022-10-12T00:14:30.562Z,35.58
2022-10-12T00:16:57.217Z,33.63
2022-10-12T00:19:23.757Z,31.13
2022-10-12T00:21:50.325Z,38.55
2022-10-12T00:24:17.025Z,39.10
2022-10-12T00:26:43.584Z,33.85
2022-10-12T00:29:10.189Z,28.75
2022-10-12T00:31:36.773Z,32.13
2022-10-12T00:34:03.721Z,37.72
2022-10-12T00:36:32.489Z,37.67
2022-10-12T00:38:59.456Z,40.20
2022-10-12T00:41:28.431Z,28.98
2022-10-12T00:43:58.268Z,37.75
2022-10-12T00:49:16.494Z,36.47
2022-10-12T00:51:45.495Z,38.67
2022-10-12T00:54:14.128Z,31.75
2022-10-12T00:56:41.356Z,35.08
2022-10-12T00:59:10.928Z,36.15
2022-10-12T01:01:37.538Z,34.42
2022-10-12T01:04:04.282Z,31.15
2022-10-12T01:06:30.897Z,34.55
2022-10-12T01:08:57.482Z,33.22
2022-10-12T01:11:24.379Z,37.13
2022-10-12T01:13:50.989Z,33.35
2022-10-12T01:16:22.560Z,36.58
2022-10-12T01:18:58.846Z,38.03
2022-10-12T01:21:25.414Z,32.88
2022-10-12T01:27:03.806Z,33.20
2022-10-12T01:32:18.184Z,27.35
2022-10-12T01:34:53.016Z,33.22
2022-10-12T01:37:24.501Z,37.90
2022-10-12T01:39:53.755Z,38.65
2022-10-12T01:42:25.573Z,35.50
2022-10-12T01:45:03.333Z,36.20
2022-10-12T01:47:30.011Z,40.97
2022-10-12T01:49:57.814Z,34.55
2022-10-12T01:52:28.620Z,36.15
2022-10-12T01:55:05.787Z,34.40
2022-10-12T01:57:55.172Z,44.35
2022-10-12T02:00:21.792Z,34.40
2022-10-12T02:05:51.960Z,45.40
2022-10-12T02:08:23.600Z,47.10
2022-10-12T02:11:02.383Z,44.53
2022-10-12T02:13:30.378Z,48.90
2022-10-12T02:15:57.131Z,46.03
2022-10-12T02:18:23.767Z,45.42
2022-10-12T02:20:51.942Z,52.95
2022-10-12T02:23:18.615Z,48.58
2022-10-12T02:25:46.136Z,49.45
2022-10-12T02:28:15.815Z,45.67
2022-10-12T02:30:49.625Z,51.85
2022-10-12T02:33:24.752Z,46.17
2022-10-12T02:35:54.716Z,56.80
2022-10-12T02:38:39.513Z,53.08
2022-10-12T02:41:12.010Z,51.83
2022-10-12T02:43:42.153Z,56.78
2022-10-12T02:46:09.476Z,52.00
2022-10-12T02:48:36.679Z,61.80
2022-10-12T02:51:03.424Z,56.42
2022-10-12T02:53:30.070Z,53.05
2022-10-12T02:56:02.860Z,62.63
2022-10-12T03:00:56.100Z,57.38
2022-10-12T03:03:22.791Z,56.30
2022-10-12T03:05:49.483Z,56.78
2022-10-12T03:08:16.077Z,62.00
2022-10-12T03:10:42.646Z,50.85
2022-10-12T03:13:09.246Z,54.33
2022-10-12T03:15:35.814Z,49.25
2022-10-12T03:18:02.420Z,62.92
2022-10-12T03:20:28.982Z,51.70
2022-10-12T03:22:55.586Z,57.35
2022-10-12T03:25:22.292Z,59.08
2022-10-12T03:27:48.891Z,64.93
2022-10-12T03:30:15.577Z,56.63
2022-10-12T03:32:42.165Z,52.78
2022-10-12T03:35:09.133Z,56.13
2022-10-12T03:37:35.911Z,47.30
2022-10-12T03:40:02.777Z,63.05
2022-10-12T03:42:29.344Z,60.78
2022-10-12T03:44:55.926Z,69.00
2022-10-12T03:47:22.561Z,60.60
2022-10-12T03:49:49.179Z,62.13
2022-10-12T03:52:15.811Z,67.68
2022-10-12T03:54:42.397Z,67.40
2022-10-12T03:57:09.007Z,67.72
2022-10-12T03:59:35.580Z,63.03
2022-10-12T04:02:02.203Z,73.97
2022-10-12T04:04:28.817Z,72.32
2022-10-12T04:06:55.437Z,80.63
2022-10-12T04:09:22.026Z,73.38
2022-10-12T04:11:48.646Z,71.07
2022-10-12T04:14:15.230Z,76.15
2022-10-12T04:16:41.890Z,78.32
2022-10-12T04:19:12.316Z,72.55
2022-10-12T04:21:39.049Z,75.55
2022-10-12T04:24:06.005Z,69.43
2022-10-12T04:26:32.622Z,75.65
2022-10-12T04:28:59.204Z,71.72
2022-10-12T04:31:25.806Z,78.07
2022-10-12T04:33:56.829Z,76.50
2022-10-12T04:36:24.433Z,74.60
2022-10-12T04:38:51.097Z,79.78
2022-10-12T04:41:17.737Z,70.95
2022-10-12T04:43:44.329Z,68.18
2022-10-12T04:46:11.303Z,64.95
2022-10-12T04:48:38.035Z,79.43
2022-10-12T04:51:05.490Z,75.63
2022-10-12T04:53:32.355Z,74.47
2022-10-12T04:56:02.717Z,70.38
2022-10-12T04:58:29.320Z,66.85
2022-10-12T05:00:55.917Z,76.35
2022-10-12T05:03:22.500Z,70.50
2022-10-12T05:05:49.106Z,62.42
2022-10-12T05:08:15.689Z,65.22
2022-10-12T05:10:42.313Z,65.07
2022-10-12T05:13:08.922Z,71.15
2022-10-12T05:15:35.567Z,73.70
2022-10-12T05:18:02.164Z,64.80
2022-10-12T05:20:28.752Z,70.95
2022-10-12T05:22:57.807Z,65.13
2022-10-12T05:25:24.516Z,64.85
2022-10-12T05:27:51.131Z,75.95
2022-10-12T05:30:17.745Z,65.30
2022-10-12T05:32:44.425Z,65.95
2022-10-12T05:35:11.345Z,68.43
2022-10-12T05:37:38.262Z,70.03
2022-10-12T05:40:05.939Z,60.65
2022-10-12T05:42:32.783Z,81.30
2022-10-12T05:44:59.369Z,67.75
2022-10-12T05:47:25.996Z,67.90
2022-10-12T05:49:52.632Z,73.15
2022-10-12T05:52:19.226Z,70.15
2022-10-12T05:54:45.865Z,70.72
2022-10-12T05:57:14.852Z,66.72
2022-10-12T05:59:42.376Z,76.07
2022-10-12T06:02:12.804Z,79.20
2022-10-12T06:04:39.477Z,73.22
2022-10-12T06:07:06.140Z,77.82
2022-10-12T06:09:33.460Z,73.57
2022-10-12T06:12:00.088Z,102.03
2022-10-12T06:14:26.791Z,73.82
2022-10-12T06:16:54.566Z,83.43
2022-10-12T06:19:21.496Z,71.03
2022-10-12T06:21:48.094Z,75.35
2022-10-12T06:24:14.651Z,97.78
2022-10-12T06:26:41.216Z,66.63
2022-10-12T06:29:08.186Z,77.72
2022-10-12T06:31:34.892Z,82.65
2022-10-12T06:34:01.542Z,67.03
2022-10-12T06:36:28.138Z,68.03
2022-10-12T06:38:55.128Z,74.53
2022-10-12T06:41:21.758Z,72.85
2022-10-12T06:43:48.391Z,75.20
2022-10-12T06:46:15.024Z,72.63
2022-10-12T06:48:41.585Z,71.38
2022-10-12T06:51:08.212Z,68.90
2022-10-12T06:53:35.092Z,61.63
2022-10-12T06:56:09.265Z,66.85
2022-10-12T06:58:35.866Z,64.03
2022-10-12T07:01:08.154Z,69.80
2022-10-12T07:03:34.834Z,64.03
2022-10-12T07:06:09.918Z,48.97
2022-10-12T07:08:36.622Z,48.50
2022-10-12T07:11:05.100Z,60.88
2022-10-12T07:13:32.103Z,55.17
2022-10-12T07:15:58.793Z,52.50
2022-10-12T07:18:25.548Z,49.33
2022-10-12T07:20:52.208Z,50.35
2022-10-12T07:23:18.854Z,45.42
2022-10-12T07:25:49.732Z,45.00
2022-10-12T07:28:17.129Z,42.92
2022-10-12T07:30:43.826Z,43.10
2022-10-12T07:33:10.545Z,39.97
2022-10-12T07:35:51.477Z,40.17
2022-10-12T07:38:23.785Z,55.10
2022-10-12T07:40:50.361Z,57.92
2022-10-12T07:43:17.132Z,45.38
2022-10-12T07:45:44.116Z,46.00
2022-10-12T07:48:10.885Z,50.90
2022-10-12T07:50:37.623Z,42.40
2022-10-12T07:53:04.231Z,49.20
2022-10-12T07:55:31.986Z,45.28
2022-10-12T07:57:59.768Z,44.50
2022-10-12T08:00:26.823Z,46.78
2022-10-12T08:02:53.478Z,50.55
2022-10-12T08:05:21.274Z,47.03
2022-10-12T08:07:49.134Z,50.35
2022-10-12T08:10:15.917Z,52.45
2022-10-12T08:12:42.496Z,49.67
2022-10-12T08:15:09.511Z,52.42
2022-10-12T08:17:36.287Z,50.38
2022-10-12T08:20:03.524Z,52.38
2022-10-12T08:22:30.165Z,54.58
2022-10-12T08:24:56.773Z,56.10
2022-10-12T08:27:23.365Z,53.92
2022-10-12T08:29:49.940Z,52.50
2022-10-12T08:32:16.616Z,53.35
2022-10-12T08:34:43.154Z,49.40
2022-10-12T08:37:09.743Z,52.25
2022-10-12T08:39:36.392Z,47.65
2022-10-12T08:42:25.932Z,58.17
2022-10-12T08:45:32.477Z,53.10
2022-10-12T08:48:01.793Z,58.05
2022-10-12T08:50:52.521Z,51.85
2022-10-12T08:53:32.957Z,57.35
2022-10-12T08:56:00.809Z,55.72
2022-10-12T08:58:37.133Z,55.40
2022-10-12T09:01:27.076Z,62.38
2022-10-12T09:04:17.296Z,58.25
2022-10-12T09:07:01.717Z,53.45
2022-10-12T09:09:54.300Z,56.88
2022-10-12T09:15:01.060Z,49.53
2022-10-12T09:17:31.788Z,51.92
2022-10-12T09:20:02.793Z,47.45
2022-10-12T09:22:30.184Z,39.72
2022-10-12T09:24:57.245Z,47.13
2022-10-12T09:27:23.911Z,44.55
2022-10-12T09:29:54.201Z,45.20
2022-10-12T09:33:00.671Z,38.95
2022-10-12T09:35:27.308Z,44.42
2022-10-12T09:37:54.121Z,48.50
2022-10-12T09:40:24.005Z,36.97
2022-10-12T09:42:50.884Z,51.63
2022-10-12T09:45:19.035Z,43.63
2022-10-12T09:50:57.926Z,40.80
2022-10-12T09:53:34.987Z,39.60
2022-10-12T09:56:05.821Z,36.78
2022-10-12T09:58:51.600Z,35.28
2022-10-12T10:01:22.782Z,37.05
2022-10-12T10:04:07.687Z,35.97
2022-10-12T10:06:35.799Z,29.02
2022-10-12T10:09:02.380Z,30.35
2022-10-12T10:11:31.498Z,29.73
2022-10-12T10:13:59.520Z,39.40
2022-10-12T10:16:26.964Z,36.97
2022-10-12T10:21:36.303Z,29.15
2022-10-12T10:24:04.583Z,29.08
2022-10-12T10:26:51.528Z,30.98
2022-10-12T10:32:26.423Z,26.65
2022-10-12T10:35:02.583Z,32.10
2022-10-12T10:37:29.528Z,28.15
2022-10-12T10:39:56.308Z,33.40
2022-10-12T10:42:28.378Z,33.83
2022-10-12T10:45:04.142Z,32.58
2022-10-12T10:47:32.014Z,25.70
2022-10-12T10:49:59.664Z,33.20
2022-10-12T10:52:32.253Z,27.27
2022-10-12T10:55:18.708Z,33.15
2022-10-12T10:57:50.141Z,30.20
2022-10-12T11:00:37.824Z,28.40
2022-10-12T11:03:26.621Z,27.60
2022-10-12T11:06:01.769Z,25.00
2022-10-12T11:08:30.027Z,27.27
2022-10-12T11:11:00.460Z,30.63
2022-10-12T11:13:52.177Z,28.25
2022-10-12T11:16:42.125Z,35.88
2022-10-12T11:19:36.632Z,36.22
2022-10-12T11:22:05.036Z,30.13
2022-10-12T11:24:35.848Z,37.28
2022-10-12T11:27:05.738Z,31.65
2022-10-12T11:29:32.365Z,36.42
2022-10-12T11:34:48.097Z,32.90
2022-10-12T11:37:20.356Z,32.33
2022-10-12T11:42:27.709Z,29.70
2022-10-12T11:44:54.347Z,24.77
2022-10-12T11:47:37.986Z,30.33
2022-10-12T11:50:26.968Z,26.52
2022-10-12T11:52:53.769Z,25.48
2022-10-12T11:55:47.442Z,21.48
2022-10-12T11:58:48.678Z,23.52
2022-10-12T12:07:38.413Z,23.35
2022-10-12T12:13:24.717Z,27.60
2022-10-12T12:18:29.763Z,22.73
2022-10-12T12:21:03.509Z,30.40
2022-10-12T12:23:37.179Z,26.98
2022-10-12T12:26:17.043Z,22.17
2022-10-12T12:28:46.913Z,21.55
2022-10-12T12:31:16.025Z,23.83
2022-10-12T12:33:45.999Z,17.77
2022-10-12T12:36:15.164Z,28.23
2022-10-12T12:41:28.033Z,20.80
2022-10-12T12:43:58.449Z,20.70
2022-10-12T12:46:27.152Z,27.58
2022-10-12T12:48:57.484Z,20.33
2022-10-12T12:51:26.987Z,22.85
2022-10-12T12:53:59.247Z,27.52
2022-10-12T12:57:05.830Z,23.55
2022-10-12T13:00:01.496Z,22.88
2022-10-12T13:02:54.923Z,27.15
2022-10-12T13:05:53.708Z,20.35
2022-10-12T13:08:50.086Z,22.10
2022-10-12T13:11:46.205Z,23.75
2022-10-12T13:14:37.929Z,22.42
2022-10-12T13:19:46.239Z,23.75
2022-10-12T13:22:31.899Z,26.58
2022-10-12T13:25:00.258Z,23.88
2022-10-12T13:27:47.571Z,28.15
2022-10-12T13:30:28.898Z,25.00
2022-10-12T13:36:08.273Z,19.42
2022-10-12T13:38:36.166Z,27.90
2022-10-12T13:41:13.157Z,28.13
2022-10-12T13:43:45.636Z,25.92
2022-10-12T13:46:33.155Z,18.60
2022-10-12T13:49:00.445Z,25.85
2022-10-12T13:51:28.840Z,24.23
2022-10-12T13:53:55.584Z,21.00
2022-10-12T13:56:24.799Z,25.38
2022-10-12T13:58:56.631Z,24.38
2022-10-12T14:01:23.319Z,24.00
2022-10-12T14:03:50.104Z,28.52
2022-10-12T14:06:33.492Z,25.17
2022-10-12T14:09:07.781Z,22.88
2022-10-12T14:11:34.480Z,25.65
2022-10-12T14:14:01.073Z,27.95
2022-10-12T14:16:27.786Z,27.73
2022-10-12T14:18:54.387Z,23.05
2022-10-12T14:21:23.452Z,27.00
2022-10-12T14:23:53.161Z,21.90
2022-10-12T14:26:23.230Z,20.90
2022-10-12T14:28:49.965Z,21.35
2022-10-12T14:31:17.037Z,27.98
2022-10-12T14:33:43.728Z,19.92
2022-10-12T14:36:27.481Z,25.15
2022-10-12T14:38:54.206Z,27.17
2022-10-12T14:41:44.679Z,27.65
2022-10-12T14:44:14.186Z,32.25
2022-10-12T14:46:50.274Z,26.23
2022-10-12T14:49:18.800Z,34.28
2022-10-12T14:51:45.511Z,28.38
2022-10-12T14:54:12.476Z,29.13
2022-10-12T14:56:39.481Z,29.08
2022-10-12T14:59:06.082Z,30.58
2022-10-12T15:01:32.896Z,24.88
2022-10-12T15:04:00.221Z,26.08
2022-10-12T15:06:26.896Z,25.77
2022-10-12T15:08:53.502Z,35.83
2022-10-12T15:11:20.189Z,31.70
2022-10-12T15:13:46.857Z,31.92
2022-10-12T15:16:20.297Z,33.17
2022-10-12T15:18:47.004Z,33.97
2022-10-12T15:21:13.685Z,29.98
2022-10-12T15:23:40.285Z,33.13
2022-10-12T15:26:06.921Z,32.95
2022-10-12T15:28:33.602Z,28.45
2022-10-12T15:31:16.968Z,26.45
2022-10-12T15:33:44.361Z,24.40
2022-10-12T15:36:11.084Z,37.75
2022-10-12T15:38:37.779Z,35.90
2022-10-12T15:41:04.406Z,36.67
2022-10-12T15:43:32.423Z,28.77
2022-10-12T15:46:00.419Z,33.53
2022-10-12T15:48:28.280Z,34.35
2022-10-12T15:50:54.936Z,36.45
2022-10-12T15:53:24.603Z,31.42
2022-10-12T15:55:53.099Z,31.38
2022-10-12T15:58:19.920Z,28.70
2022-10-12T16:00:46.731Z,28.60
2022-10-12T16:03:15.559Z,31.90
2022-10-12T16:05:42.195Z,30.10
2022-10-12T16:08:08.891Z,33.88
2022-10-12T16:10:38.185Z,29.88
2022-10-12T16:13:06.060Z,29.42
2022-10-12T16:15:33.253Z,31.30
2022-10-12T16:18:00.429Z,26.98
2022-10-12T16:20:27.939Z,33.10
2022-10-12T16:22:54.753Z,35.38
2022-10-12T16:25:23.787Z,27.83
2022-10-12T16:27:51.345Z,35.50
2022-10-12T16:30:18.033Z,30.65
2022-10-12T16:32:44.722Z,28.33
2022-10-12T16:35:11.502Z,40.08
2022-10-12T16:37:38.094Z,23.83
2022-10-12T16:40:05.328Z,33.25
2022-10-12T16:42:31.924Z,26.33
2022-10-12T16:44:58.556Z,27.88
2022-10-12T16:47:25.524Z,26.05
2022-10-12T16:49:53.727Z,31.08
2022-10-12T16:52:24.656Z,26.05
2022-10-12T16:54:52.999Z,25.08
2022-10-12T16:57:19.647Z,38.53
2022-10-12T16:59:47.029Z,28.13
2022-10-12T17:02:14.382Z,33.83
2022-10-12T17:04:41.122Z,29.75
2022-10-12T17:07:07.719Z,38.42
2022-10-12T17:09:34.319Z,29.38
2022-10-12T17:12:00.953Z,24.75
2022-10-12T17:14:29.491Z,25.85
2022-10-12T17:16:57.397Z,29.15
2022-10-12T17:19:28.501Z,31.83
2022-10-12T17:21:58.314Z,24.83
2022-10-12T17:24:26.255Z,31.98
2022-10-12T17:26:53.313Z,28.67
2022-10-12T17:29:20.291Z,27.90
2022-10-12T17:31:47.336Z,23.13
2022-10-12T17:34:20.927Z,26.65
2022-10-12T17:36:47.608Z,23.10
2022-10-12T17:39:14.370Z,36.08
2022-10-12T17:41:41.100Z,25.10
2022-10-12T17:44:07.835Z,26.38
2022-10-12T17:46:34.434Z,26.75
2022-10-12T17:49:02.557Z,22.52
2022-10-12T17:51:29.211Z,25.48
2022-10-12T17:53:55.800Z,24.92
2022-10-12T17:56:22.860Z,29.70
2022-10-12T17:58:54.333Z,28.02
2022-10-12T18:01:21.564Z,27.85
2022-10-12T18:03:48.384Z,29.63
2022-10-12T18:06:16.705Z,24.30
2022-10-12T18:08:43.768Z,17.75
2022-10-12T18:11:10.772Z,26.65
2022-10-12T18:13:37.950Z,21.20
2022-10-12T18:16:09.157Z,22.75
2022-10-12T18:18:35.803Z,19.73
2022-10-12T18:21:06.292Z,22.48
2022-10-12T18:23:32.921Z,18.92
2022-10-12T18:26:07.875Z,21.45
2022-10-12T18:28:34.910Z,22.88
2022-10-12T18:31:01.951Z,27.40
2022-10-12T18:33:28.537Z,27.70
2022-10-12T18:35:55.229Z,23.85
2022-10-12T18:38:21.890Z,24.48
2022-10-12T18:40:48.559Z,21.13
2022-10-12T18:43:15.212Z,24.58
2022-10-12T18:45:43.588Z,24.05
2022-10-12T18:48:11.284Z,19.92
2022-10-12T18:50:38.514Z,23.98
2022-10-12T18:53:05.225Z,25.42
2022-10-12T18:55:32.250Z,25.02
2022-10-12T18:57:58.864Z,26.48
2022-10-12T19:00:25.438Z,27.23
2022-10-12T19:02:52.120Z,21.98
2022-10-12T19:05:18.817Z,17.38
2022-10-12T19:07:45.455Z,21.45
2022-10-12T19:10:12.117Z,24.73
2022-10-12T19:12:43.404Z,19.38
2022-10-12T19:15:12.152Z,22.90
2022-10-12T19:17:38.752Z,25.45
2022-10-12T19:20:05.893Z,26.98
2022-10-12T19:22:33.069Z,27.17
2022-10-12T19:24:59.727Z,24.73
2022-10-12T19:27:26.409Z,23.52
2022-10-12T19:29:53.049Z,21.23
2022-10-12T19:32:20.114Z,25.23
2022-10-12T19:34:46.957Z,34.72
2022-10-12T19:37:13.874Z,27.50
2022-10-12T19:39:44.751Z,24.65
2022-10-12T19:42:11.379Z,27.42
2022-10-12T19:44:37.988Z,29.90
2022-10-12T19:47:04.659Z,23.17
2022-10-12T19:49:35.842Z,23.98
2022-10-12T19:52:03.450Z,30.45
2022-10-12T19:54:34.118Z,28.92
2022-10-12T19:57:02.606Z,26.70
2022-10-12T19:59:29.217Z,25.70
2022-10-12T20:01:55.879Z,27.45
2022-10-12T20:04:22.552Z,28.38
2022-10-12T20:06:49.169Z,27.45
2022-10-12T20:09:15.825Z,27.88
2022-10-12T20:11:42.502Z,31.20
2022-10-12T20:14:09.667Z,23.98
2022-10-12T20:16:36.713Z,26.08
2022-10-12T20:19:04.408Z,28.52
2022-10-12T20:21:31.171Z,23.52
2022-10-12T20:23:57.761Z,25.13
2022-10-12T20:26:25.062Z,24.33
2022-10-12T20:28:52.193Z,24.63
2022-10-12T20:31:22.884Z,27.38
2022-10-12T20:33:52.308Z,26.27
2022-10-12T20:36:21.141Z,31.13
2022-10-12T20:38:47.750Z,30.58
2022-10-12T20:41:17.049Z,29.88
2022-10-12T20:43:43.648Z,36.20
2022-10-12T20:46:13.797Z,24.92
2022-10-12T20:48:40.721Z,28.27
2022-10-12T20:51:08.038Z,35.17
2022-10-12T20:53:34.814Z,25.77
2022-10-12T20:56:06.000Z,27.63
2022-10-12T20:58:32.693Z,32.20
2022-10-12T21:01:07.696Z,33.17
2022-10-12T21:03:34.646Z,27.63
2022-10-12T21:06:17.161Z,33.60
2022-10-12T21:08:43.795Z,31.50
2022-10-12T21:11:10.676Z,26.92
2022-10-12T21:13:40.950Z,38.03
2022-10-12T21:16:08.887Z,27.90
2022-10-12T21:18:38.035Z,39.63
2022-10-12T21:21:12.144Z,39.60
2022-10-12T21:23:40.129Z,33.50
2022-10-12T21:26:12.897Z,39.95
2022-10-12T21:31:06.374Z,33.10
2022-10-12T21:33:34.115Z,50.92
2022-10-12T21:36:17.917Z,29.85
2022-10-12T21:38:44.763Z,30.38
2022-10-12T21:41:12.120Z,31.23
2022-10-12T21:43:39.430Z,33.85
2022-10-12T21:46:07.449Z,31.00
2022-10-12T21:48:34.227Z,30.02
2022-10-12T21:51:01.620Z,32.95
2022-10-12T21:53:28.258Z,28.67
2022-10-12T21:55:54.849Z,30.02
2022-10-12T21:58:21.520Z,35.20
2022-10-12T22:00:48.231Z,33.55
2022-10-12T22:03:14.849Z,28.42
2022-10-12T22:05:42.037Z,33.33
2022-10-12T22:08:08.908Z,33.72
2022-10-12T22:10:36.605Z,36.33
2022-10-12T22:13:03.212Z,44.03
2022-10-12T22:15:29.796Z,36.95
2022-10-12T22:17:56.396Z,32.08
2022-10-12T22:20:23.081Z,36.38
2022-10-12T22:22:49.663Z,32.85
2022-10-12T22:25:16.308Z,41.60
2022-10-12T22:27:43.278Z,31.50
2022-10-12T22:30:10.212Z,29.70
2022-10-12T22:32:36.847Z,36.72
2022-10-12T22:35:03.648Z,31.20
2022-10-12T22:37:30.241Z,36.20
2022-10-12T22:39:56.884Z,33.97
2022-10-12T22:42:23.493Z,36.83
2022-10-12T22:44:50.076Z,37.08
2022-10-12T22:47:16.652Z,39.90
2022-10-12T22:49:43.317Z,39.05
2022-10-12T22:52:09.918Z,35.10
2022-10-12T22:54:36.491Z,35.15
2022-10-12T22:57:03.100Z,33.83
2022-10-12T22:59:29.697Z,32.28
2022-10-12T23:01:56.267Z,35.40
2022-10-12T23:04:22.840Z,38.40
2022-10-12T23:06:49.395Z,36.35
2022-10-12T23:09:15.964Z,37.28
2022-10-12T23:11:42.553Z,31.58
2022-10-12T23:14:10.075Z,35.72
2022-10-12T23:16:36.700Z,30.23
2022-10-12T23:19:04.751Z,33.85
2022-10-12T23:21:32.260Z,38.05
2022-10-12T23:23:59.942Z,30.90
2022-10-12T23:26:26.770Z,39.03
2022-10-12T23:28:53.541Z,33.08
2022-10-12T23:31:21.803Z,34.60
2022-10-12T23:33:48.397Z,38.40
2022-10-12T23:36:16.603Z,38.58
2022-10-12T23:38:43.818Z,36.30
2022-10-12T23:41:10.721Z,40.65
2022-10-12T23:43:37.362Z,42.08
2022-10-12T23:46:04.710Z,35.63
2022-10-12T23:48:31.711Z,34.97
2022-10-12T23:50:58.473Z,38.25
2022-10-12T23:53:25.906Z,33.15
2022-10-12T23:55:52.694Z,33.22
2022-10-12T23:58:19.491Z,38.65
